createdAt,value
2023-05-20T00:00:19.295Z,56
2023-05-20T00:05:19.264Z,57
2023-05-20T00:10:19.264Z,57
2023-05-20T00:15:19.304Z,57
2023-05-20T00:20:19.289Z,58
2023-05-20T00:25:19.278Z,58
2023-05-20T00:30:16.272Z,59
2023-05-20T00:35:19.305Z,59
2023-05-20T00:40:19.272Z,60
2023-05-20T00:45:19.311Z,60
2023-05-20T00:50:19.270Z,61
2023-05-20T00:55:19.279Z,61
2023-05-20T01:00:19.309Z,62
2023-05-20T01:05:19.328Z,62
2023-05-20T01:10:19.296Z,62
2023-05-20T01:15:19.308Z,63
2023-05-20T01:20:19.285Z,63
2023-05-20T01:25:19.430Z,63
2023-05-20T01:30:19.296Z,64
2023-05-20T01:35:19.401Z,64
2023-05-20T01:40:19.301Z,64
2023-05-20T01:45:19.356Z,64
2023-05-20T01:50:19.349Z,65
2023-05-20T01:55:16.377Z,65
2023-05-20T02:00:16.351Z,66
2023-05-20T02:05:16.390Z,66
2023-05-20T02:10:16.385Z,66
2023-05-20T02:15:16.384Z,66
2023-05-20T02:20:16.358Z,67
2023-05-20T02:25:16.360Z,67
2023-05-20T02:30:16.181Z,67
2023-05-20T02:35:16.359Z,67
2023-05-20T02:40:16.392Z,67
2023-05-20T02:45:16.343Z,67
2023-05-20T02:50:16.407Z,67
2023-05-20T02:55:16.413Z,67
2023-05-20T03:00:16.150Z,67
2023-05-20T03:05:16.358Z,66
2023-05-20T03:10:16.410Z,66
2023-05-20T03:15:16.498Z,66
2023-05-20T03:20:16.385Z,66
2023-05-20T03:25:19.420Z,65
2023-05-20T03:30:19.329Z,65
2023-05-20T03:35:16.449Z,64
2023-05-20T03:40:16.378Z,65
2023-05-20T03:45:16.416Z,65
2023-05-20T03:50:16.388Z,65
2023-05-20T03:55:16.420Z,66
2023-05-20T04:00:15.634Z,66
2023-05-20T04:05:15.696Z,67
2023-05-20T04:10:18.670Z,67
2023-05-20T04:15:18.704Z,67
2023-05-20T04:20:18.646Z,67
2023-05-20T04:25:18.666Z,68
2023-05-20T04:30:18.643Z,68
2023-05-20T04:35:18.721Z,69
2023-05-20T04:40:18.748Z,69
2023-05-20T04:45:18.627Z,69
2023-05-20T04:50:18.647Z,69
2023-05-20T04:55:15.738Z,69
2023-05-20T05:00:15.713Z,69
2023-05-20T05:05:15.742Z,70
2023-05-20T05:10:18.678Z,70
2023-05-20T05:15:18.686Z,70
2023-05-20T05:20:18.676Z,70
2023-05-20T05:25:18.628Z,71
2023-05-20T05:30:18.677Z,71
2023-05-20T05:35:18.719Z,72
2023-05-20T05:40:18.702Z,72
2023-05-20T05:45:18.692Z,72
2023-05-20T05:50:18.704Z,72
2023-05-20T05:55:18.683Z,73
2023-05-20T06:00:18.633Z,73
2023-05-20T06:05:18.686Z,73
2023-05-20T06:10:18.664Z,73
2023-05-20T06:15:15.715Z,73
2023-05-20T06:20:15.713Z,73
2023-05-20T06:25:15.780Z,73
2023-05-20T06:30:18.941Z,74
2023-05-20T06:35:18.723Z,73
2023-05-20T06:40:18.699Z,74
2023-05-20T06:45:18.746Z,74
2023-05-20T06:50:18.731Z,74
2023-05-20T06:55:18.679Z,74
2023-05-20T07:00:18.683Z,74
2023-05-20T07:05:18.725Z,75
2023-05-20T07:10:18.727Z,75
2023-05-20T07:15:15.561Z,75
2023-05-20T07:20:18.735Z,76
2023-05-20T07:25:15.820Z,77
2023-05-20T07:30:15.855Z,78
2023-05-20T07:35:15.759Z,78
2023-05-20T07:40:15.747Z,78
2023-05-20T07:45:18.973Z,79
2023-05-20T07:50:15.748Z,79
2023-05-20T07:55:18.788Z,79
2023-05-20T08:00:18.698Z,79
2023-05-20T08:05:18.709Z,79
2023-05-20T08:10:18.750Z,79
2023-05-20T08:15:18.790Z,79
2023-05-20T08:20:18.865Z,79
2023-05-20T08:25:15.821Z,79
2023-05-20T08:30:15.860Z,79
2023-05-20T08:35:18.762Z,79
2023-05-20T08:40:15.779Z,79
2023-05-20T08:45:15.794Z,79
2023-05-20T08:50:15.785Z,79
2023-05-20T08:55:18.799Z,79
2023-05-20T09:00:15.852Z,79
2023-05-20T09:05:18.940Z,79
2023-05-20T09:10:15.607Z,79
2023-05-20T09:15:18.781Z,79
2023-05-20T09:20:18.774Z,79
2023-05-20T09:25:18.864Z,79
2023-05-20T09:30:15.807Z,79
2023-05-20T09:35:18.784Z,78
2023-05-20T09:40:18.786Z,78
2023-05-20T09:45:18.759Z,77
2023-05-20T09:50:18.804Z,77
2023-05-20T09:55:15.852Z,77
2023-05-20T10:00:15.857Z,77
2023-05-20T10:05:18.808Z,77
2023-05-20T10:10:18.812Z,77
2023-05-20T10:15:15.806Z,77
2023-05-20T10:20:18.809Z,77
2023-05-20T10:25:15.851Z,77
2023-05-20T10:30:18.854Z,76
2023-05-20T10:35:15.845Z,76
2023-05-20T10:40:18.789Z,76
2023-05-20T10:45:18.902Z,76
2023-05-20T10:50:15.864Z,76
2023-05-20T10:55:15.886Z,76
2023-05-20T11:00:18.845Z,76
2023-05-20T11:05:18.862Z,76
2023-05-20T11:10:18.845Z,76
2023-05-20T11:15:18.864Z,76
2023-05-20T11:20:18.852Z,76
2023-05-20T11:25:18.838Z,76
2023-05-20T11:30:15.849Z,76
2023-05-20T11:35:15.919Z,76
2023-05-20T11:40:18.796Z,76
2023-05-20T11:45:18.894Z,76
2023-05-20T11:50:15.654Z,76
2023-05-20T11:55:15.840Z,76
2023-05-20T12:00:18.909Z,76
2023-05-20T12:05:15.907Z,77
2023-05-20T12:10:18.893Z,77
2023-05-20T12:15:18.853Z,77
2023-05-20T12:20:18.853Z,78
2023-05-20T12:25:18.826Z,78
2023-05-20T12:30:15.863Z,78
2023-05-20T12:35:18.938Z,79
2023-05-20T12:40:18.866Z,79
2023-05-20T12:45:18.905Z,79
2023-05-20T12:50:15.879Z,79
2023-05-20T12:55:19.151Z,79
2023-05-20T13:00:15.928Z,79
2023-05-20T13:05:18.919Z,78
2023-05-20T13:10:18.879Z,78
2023-05-20T13:15:18.906Z,76
2023-05-20T13:20:19.985Z,76
2023-05-20T13:25:15.988Z,75
2023-05-20T13:30:15.997Z,75
2023-05-20T13:35:18.951Z,75
2023-05-20T13:40:15.916Z,74
2023-05-20T13:45:18.967Z,73
2023-05-20T13:50:18.853Z,73
2023-05-20T13:55:18.953Z,73
2023-05-20T14:00:18.885Z,73
2023-05-20T14:05:18.909Z,73
2023-05-20T14:10:18.859Z,73
2023-05-20T14:15:18.858Z,72
2023-05-20T14:20:18.942Z,73
2023-05-20T14:25:18.901Z,73
2023-05-20T14:30:15.942Z,72
2023-05-20T14:35:15.944Z,72
2023-05-20T14:40:18.950Z,73
2023-05-20T14:45:16.020Z,72
2023-05-20T14:50:18.946Z,72
2023-05-20T14:55:18.913Z,73
2023-05-20T15:00:18.910Z,72
2023-05-20T15:05:15.785Z,72
2023-05-20T15:10:18.967Z,72
2023-05-20T15:15:15.982Z,73
2023-05-20T15:20:18.924Z,73
2023-05-20T15:25:16.000Z,74
2023-05-20T15:30:15.935Z,75
2023-05-20T15:35:15.984Z,75
2023-05-20T15:40:18.932Z,75
2023-05-20T15:45:15.972Z,75
2023-05-20T15:50:16.011Z,76
2023-05-20T15:55:18.996Z,77
2023-05-20T16:00:18.959Z,78
2023-05-20T16:05:15.972Z,78
2023-05-20T16:10:15.953Z,78
2023-05-20T16:15:19.002Z,78
2023-05-20T16:20:15.984Z,79
2023-05-20T16:25:15.994Z,79
2023-05-20T16:30:16.018Z,79
2023-05-20T16:35:19.003Z,79
2023-05-20T16:40:16.052Z,79
2023-05-20T16:45:16.028Z,79
2023-05-20T16:50:18.977Z,78
2023-05-20T16:55:16.013Z,78
2023-05-20T17:00:18.973Z,78
2023-05-20T17:05:16.997Z,78
2023-05-20T17:10:19.005Z,78
2023-05-20T17:15:15.998Z,78
2023-05-20T17:20:16.048Z,78
2023-05-20T17:25:18.975Z,78
2023-05-20T17:30:19.017Z,77
2023-05-20T17:35:15.983Z,77
2023-05-20T17:40:18.989Z,76
2023-05-20T17:45:16.011Z,76
2023-05-20T17:50:16.003Z,75
2023-05-20T17:55:19.061Z,75
2023-05-20T18:00:19.003Z,74
2023-05-20T18:05:16.023Z,74
2023-05-20T18:10:16.051Z,73
2023-05-20T18:15:19.094Z,72
2023-05-20T18:20:18.982Z,71
2023-05-20T18:25:16.067Z,70
2023-05-20T18:30:19.034Z,69
2023-05-20T18:35:19.045Z,68
2023-05-20T18:40:16.053Z,67
2023-05-20T18:45:18.994Z,66
2023-05-20T18:50:19.073Z,65
2023-05-20T18:55:15.846Z,65
2023-05-20T19:00:19.105Z,64
2023-05-20T19:05:19.142Z,64
2023-05-20T19:10:16.091Z,63
2023-05-20T19:15:19.121Z,63
2023-05-20T19:20:16.069Z,62
2023-05-20T19:25:19.072Z,62
2023-05-20T19:30:16.071Z,61
2023-05-20T19:35:19.086Z,60
2023-05-20T19:40:19.044Z,59
2023-05-20T19:45:19.032Z,58
2023-05-20T19:50:19.010Z,56
2023-05-20T19:55:19.087Z,55
2023-05-20T20:00:16.103Z,53
2023-05-20T20:05:16.136Z,52
2023-05-20T20:10:19.085Z,51
2023-05-20T20:15:16.063Z,50
2023-05-20T20:20:16.105Z,48
2023-05-20T20:25:19.074Z,46
2023-05-20T20:30:19.045Z,45
2023-05-20T20:35:16.101Z,44
2023-05-20T20:40:19.102Z,43
2023-05-20T20:45:19.103Z,43
2023-05-20T20:50:19.092Z,42
2023-05-20T20:55:19.101Z,41
2023-05-20T21:00:19.070Z,40
2023-05-20T21:05:19.117Z,40
2023-05-20T21:10:16.117Z,40
2023-05-20T21:15:19.113Z,39
2023-05-20T21:20:21.280Z,39
2023-05-20T21:25:19.069Z,37
2023-05-20T21:30:19.071Z,37
2023-05-20T21:35:16.106Z,36
2023-05-20T21:40:19.117Z,36
2023-05-20T21:45:19.100Z,35
2023-05-20T21:50:19.084Z,35
2023-05-20T21:55:16.141Z,34
2023-05-20T22:00:19.116Z,34
2023-05-20T22:05:19.081Z,33
2023-05-20T22:10:20.444Z,33
2023-05-20T22:15:15.981Z,32
2023-05-20T22:20:19.131Z,31
2023-05-20T22:25:19.128Z,31
2023-05-20T22:30:19.081Z,30
2023-05-20T22:35:19.085Z,30
2023-05-20T22:40:16.122Z,29
2023-05-20T22:45:19.168Z,29
2023-05-20T22:50:16.127Z,28
2023-05-20T22:55:19.179Z,28
2023-05-20T23:00:19.095Z,27
2023-05-20T23:05:16.157Z,27
2023-05-20T23:10:19.172Z,27
2023-05-20T23:15:19.202Z,26
2023-05-20T23:20:19.223Z,26
2023-05-20T23:25:16.202Z,27
2023-05-20T23:30:19.163Z,27
2023-05-20T23:35:16.088Z,27
2023-05-20T23:40:19.258Z,27
2023-05-20T23:45:19.160Z,28
2023-05-20T23:50:19.155Z,28
2023-05-20T23:55:19.103Z,28
